sensor_id;sensor_type;location;lat;lon;timestamp;P1;durP1;ratioP1;P2;durP2;ratioP2
23614;SDS011;11985;49.404;7.734;2024-03-02T00:03:08;2.25;;;1.70;;
23614;SDS011;11985;49.404;7.734;2024-03-02T00:08:10;3.50;;;1.50;;
23614;SDS011;11985;49.404;7.734;2024-03-02T00:13:11;2.78;;;1.33;;
23614;SDS011;11985;49.404;7.734;2024-03-02T00:18:16;2.30;;;1.40;;
23614;SDS011;11985;49.404;7.734;2024-03-02T00:23:20;3.63;;;1.65;;
23614;SDS011;11985;49.404;7.734;2024-03-02T00:28:23;2.75;;;1.50;;
23614;SDS011;11985;49.404;7.734;2024-03-02T00:33:28;1.97;;;1.50;;
23614;SDS011;11985;49.404;7.734;2024-03-02T00:38:33;3.97;;;1.40;;
23614;SDS011;11985;49.404;7.734;2024-03-02T00:43:42;2.72;;;1.40;;
23614;SDS011;11985;49.404;7.734;2024-03-02T00:48:51;3.45;;;1.98;;
23614;SDS011;11985;49.404;7.734;2024-03-02T00:53:55;3.20;;;1.85;;
23614;SDS011;11985;49.404;7.734;2024-03-02T01:04:02;1.95;;;1.30;;
23614;SDS011;11985;49.404;7.734;2024-03-02T01:09:04;2.90;;;1.80;;
23614;SDS011;11985;49.404;7.734;2024-03-02T01:14:06;2.95;;;1.80;;
23614;SDS011;11985;49.404;7.734;2024-03-02T01:19:09;2.10;;;1.50;;
23614;SDS011;11985;49.404;7.734;2024-03-02T01:24:10;2.92;;;1.52;;
23614;SDS011;11985;49.404;7.734;2024-03-02T01:29:13;4.38;;;1.70;;
23614;SDS011;11985;49.404;7.734;2024-03-02T01:34:16;3.05;;;1.60;;
23614;SDS011;11985;49.404;7.734;2024-03-02T01:39:17;1.90;;;1.45;;
23614;SDS011;11985;49.404;7.734;2024-03-02T01:44:19;2.03;;;1.45;;
23614;SDS011;11985;49.404;7.734;2024-03-02T01:49:22;3.75;;;1.45;;
23614;SDS011;11985;49.404;7.734;2024-03-02T01:54:23;8.02;;;1.45;;
23614;SDS011;11985;49.404;7.734;2024-03-02T01:59:25;8.07;;;1.73;;
23614;SDS011;11985;49.404;7.734;2024-03-02T02:04:28;2.85;;;1.60;;
23614;SDS011;11985;49.404;7.734;2024-03-02T02:09:30;4.38;;;1.27;;
23614;SDS011;11985;49.404;7.734;2024-03-02T02:14:32;3.17;;;1.63;;
23614;SDS011;11985;49.404;7.734;2024-03-02T02:19:35;2.70;;;1.67;;
23614;SDS011;11985;49.404;7.734;2024-03-02T02:24:40;3.80;;;1.75;;
23614;SDS011;11985;49.404;7.734;2024-03-02T02:29:42;3.20;;;2.10;;
23614;SDS011;11985;49.404;7.734;2024-03-02T02:34:44;4.30;;;1.85;;
23614;SDS011;11985;49.404;7.734;2024-03-02T02:39:47;6.95;;;2.10;;
23614;SDS011;11985;49.404;7.734;2024-03-02T02:44:48;3.05;;;1.90;;
23614;SDS011;11985;49.404;7.734;2024-03-02T02:49:50;4.30;;;1.83;;
23614;SDS011;11985;49.404;7.734;2024-03-02T02:54:53;4.25;;;2.10;;
23614;SDS011;11985;49.404;7.734;2024-03-02T02:59:54;4.57;;;2.30;;
23614;SDS011;11985;49.404;7.734;2024-03-02T03:04:56;5.88;;;2.40;;
23614;SDS011;11985;49.404;7.734;2024-03-02T03:09:59;4.00;;;2.70;;
23614;SDS011;11985;49.404;7.734;2024-03-02T03:15:01;4.13;;;2.55;;
23614;SDS011;11985;49.404;7.734;2024-03-02T03:20:05;4.22;;;2.65;;
23614;SDS011;11985;49.404;7.734;2024-03-02T03:25:11;4.00;;;2.47;;
23614;SDS011;11985;49.404;7.734;2024-03-02T03:30:13;5.07;;;2.60;;
23614;SDS011;11985;49.404;7.734;2024-03-02T03:35:14;5.00;;;2.30;;
23614;SDS011;11985;49.404;7.734;2024-03-02T03:40:17;4.03;;;2.65;;
23614;SDS011;11985;49.404;7.734;2024-03-02T03:45:19;6.15;;;3.08;;
23614;SDS011;11985;49.404;7.734;2024-03-02T03:50:21;6.28;;;3.08;;
23614;SDS011;11985;49.404;7.734;2024-03-02T03:55:24;8.15;;;3.25;;
23614;SDS011;11985;49.404;7.734;2024-03-02T04:00:25;7.53;;;4.00;;
23614;SDS011;11985;49.404;7.734;2024-03-02T04:05:27;6.22;;;3.72;;
23614;SDS011;11985;49.404;7.734;2024-03-02T04:10:30;6.97;;;3.65;;
23614;SDS011;11985;49.404;7.734;2024-03-02T04:15:31;5.93;;;3.20;;
23614;SDS011;11985;49.404;7.734;2024-03-02T04:20:33;9.20;;;3.78;;
23614;SDS011;11985;49.404;7.734;2024-03-02T04:25:36;9.93;;;4.47;;
23614;SDS011;11985;49.404;7.734;2024-03-02T04:30:37;5.80;;;3.35;;
23614;SDS011;11985;49.404;7.734;2024-03-02T04:35:39;10.52;;;4.22;;
23614;SDS011;11985;49.404;7.734;2024-03-02T04:40:42;7.78;;;4.43;;
23614;SDS011;11985;49.404;7.734;2024-03-02T04:45:44;7.15;;;4.10;;
23614;SDS011;11985;49.404;7.734;2024-03-02T04:50:45;6.43;;;3.78;;
23614;SDS011;11985;49.404;7.734;2024-03-02T04:55:48;9.77;;;3.42;;
23614;SDS011;11985;49.404;7.734;2024-03-02T05:01:27;4.78;;;3.03;;
23614;SDS011;11985;49.404;7.734;2024-03-02T05:06:29;5.93;;;3.28;;
23614;SDS011;11985;49.404;7.734;2024-03-02T05:11:32;6.60;;;3.42;;
23614;SDS011;11985;49.404;7.734;2024-03-02T05:16:59;5.60;;;3.10;;
23614;SDS011;11985;49.404;7.734;2024-03-02T05:22:00;6.35;;;3.20;;
23614;SDS011;11985;49.404;7.734;2024-03-02T05:27:04;4.13;;;2.42;;
23614;SDS011;11985;49.404;7.734;2024-03-02T05:32:07;6.85;;;3.15;;
23614;SDS011;11985;49.404;7.734;2024-03-02T05:37:09;4.22;;;2.55;;
23614;SDS011;11985;49.404;7.734;2024-03-02T05:42:12;4.80;;;2.72;;
23614;SDS011;11985;49.404;7.734;2024-03-02T05:47:13;5.38;;;2.53;;
23614;SDS011;11985;49.404;7.734;2024-03-02T05:52:15;3.95;;;2.20;;
23614;SDS011;11985;49.404;7.734;2024-03-02T05:57:18;5.13;;;2.85;;
23614;SDS011;11985;49.404;7.734;2024-03-02T06:02:33;3.22;;;2.22;;
23614;SDS011;11985;49.404;7.734;2024-03-02T06:07:36;4.63;;;2.60;;
23614;SDS011;11985;49.404;7.734;2024-03-02T06:12:39;5.38;;;3.15;;
23614;SDS011;11985;49.404;7.734;2024-03-02T06:17:40;6.85;;;2.58;;
23614;SDS011;11985;49.404;7.734;2024-03-02T06:22:42;4.10;;;2.38;;
23614;SDS011;11985;49.404;7.734;2024-03-02T06:27:45;3.45;;;2.45;;
23614;SDS011;11985;49.404;7.734;2024-03-02T06:32:46;5.00;;;2.63;;
23614;SDS011;11985;49.404;7.734;2024-03-02T06:37:48;5.15;;;2.40;;
23614;SDS011;11985;49.404;7.734;2024-03-02T06:42:51;3.92;;;2.33;;
23614;SDS011;11985;49.404;7.734;2024-03-02T06:47:52;4.47;;;2.22;;
23614;SDS011;11985;49.404;7.734;2024-03-02T06:52:54;6.75;;;2.50;;
23614;SDS011;11985;49.404;7.734;2024-03-02T06:57:58;4.30;;;2.58;;
23614;SDS011;11985;49.404;7.734;2024-03-02T07:03:00;3.83;;;2.45;;
23614;SDS011;11985;49.404;7.734;2024-03-02T07:08:02;6.47;;;2.33;;
23614;SDS011;11985;49.404;7.734;2024-03-02T07:13:06;3.80;;;2.40;;
23614;SDS011;11985;49.404;7.734;2024-03-02T07:18:08;3.05;;;1.88;;
23614;SDS011;11985;49.404;7.734;2024-03-02T07:23:09;3.63;;;2.55;;
23614;SDS011;11985;49.404;7.734;2024-03-02T07:28:12;2.75;;;2.00;;
23614;SDS011;11985;49.404;7.734;2024-03-02T07:33:14;4.75;;;2.85;;
23614;SDS011;11985;49.404;7.734;2024-03-02T07:38:16;3.58;;;1.88;;
23614;SDS011;11985;49.404;7.734;2024-03-02T07:43:20;5.53;;;2.08;;
23614;SDS011;11985;49.404;7.734;2024-03-02T07:48:21;4.47;;;2.40;;
23614;SDS011;11985;49.404;7.734;2024-03-02T07:53:23;4.40;;;1.80;;
23614;SDS011;11985;49.404;7.734;2024-03-02T07:58:26;3.22;;;1.92;;
23614;SDS011;11985;49.404;7.734;2024-03-02T08:03:27;3.85;;;2.10;;
23614;SDS011;11985;49.404;7.734;2024-03-02T08:08:29;3.67;;;2.03;;
23614;SDS011;11985;49.404;7.734;2024-03-02T08:13:32;2.78;;;1.80;;
23614;SDS011;11985;49.404;7.734;2024-03-02T08:18:34;2.88;;;1.98;;
23614;SDS011;11985;49.404;7.734;2024-03-02T08:23:35;4.18;;;2.50;;
23614;SDS011;11985;49.404;7.734;2024-03-02T08:28:39;3.78;;;1.80;;
23614;SDS011;11985;49.404;7.734;2024-03-02T08:33:41;3.88;;;1.85;;
23614;SDS011;11985;49.404;7.734;2024-03-02T08:38:43;2.53;;;1.73;;
23614;SDS011;11985;49.404;7.734;2024-03-02T08:43:46;4.88;;;1.98;;
23614;SDS011;11985;49.404;7.734;2024-03-02T08:48:48;2.17;;;1.52;;
23614;SDS011;11985;49.404;7.734;2024-03-02T08:53:49;2.28;;;1.75;;
23614;SDS011;11985;49.404;7.734;2024-03-02T08:58:53;2.13;;;1.50;;
23614;SDS011;11985;49.404;7.734;2024-03-02T09:03:54;5.65;;;1.63;;
23614;SDS011;11985;49.404;7.734;2024-03-02T09:08:56;3.83;;;1.50;;
23614;SDS011;11985;49.404;7.734;2024-03-02T09:13:59;2.47;;;1.40;;
23614;SDS011;11985;49.404;7.734;2024-03-02T09:19:00;2.13;;;1.60;;
23614;SDS011;11985;49.404;7.734;2024-03-02T09:24:02;2.17;;;1.40;;
23614;SDS011;11985;49.404;7.734;2024-03-02T09:29:05;2.58;;;1.30;;
23614;SDS011;11985;49.404;7.734;2024-03-02T09:34:07;1.73;;;1.25;;
23614;SDS011;11985;49.404;7.734;2024-03-02T09:39:09;4.18;;;1.30;;
23614;SDS011;11985;49.404;7.734;2024-03-02T09:44:12;1.65;;;0.98;;
23614;SDS011;11985;49.404;7.734;2024-03-02T09:49:13;1.33;;;1.10;;
23614;SDS011;11985;49.404;7.734;2024-03-02T09:54:15;2.55;;;1.10;;
23614;SDS011;11985;49.404;7.734;2024-03-02T09:59:18;2.03;;;1.20;;
23614;SDS011;11985;49.404;7.734;2024-03-02T10:04:20;2.38;;;1.17;;
23614;SDS011;11985;49.404;7.734;2024-03-02T10:09:26;4.00;;;1.02;;
23614;SDS011;11985;49.404;7.734;2024-03-02T10:14:30;2.50;;;0.90;;
23614;SDS011;11985;49.404;7.734;2024-03-02T10:19:32;1.73;;;1.17;;
23614;SDS011;11985;49.404;7.734;2024-03-02T10:24:35;1.95;;;1.05;;
23614;SDS011;11985;49.404;7.734;2024-03-02T10:29:40;1.30;;;0.87;;
23614;SDS011;11985;49.404;7.734;2024-03-02T10:34:42;4.68;;;1.10;;
23614;SDS011;11985;49.404;7.734;2024-03-02T10:39:45;1.55;;;0.90;;
23614;SDS011;11985;49.404;7.734;2024-03-02T10:44:49;1.25;;;0.95;;
23614;SDS011;11985;49.404;7.734;2024-03-02T10:49:51;2.03;;;1.05;;
23614;SDS011;11985;49.404;7.734;2024-03-02T10:54:53;1.10;;;0.73;;
23614;SDS011;11985;49.404;7.734;2024-03-02T10:59:57;1.52;;;0.80;;
23614;SDS011;11985;49.404;7.734;2024-03-02T11:05:04;2.00;;;0.70;;
23614;SDS011;11985;49.404;7.734;2024-03-02T11:10:09;1.55;;;0.80;;
23614;SDS011;11985;49.404;7.734;2024-03-02T11:15:14;0.70;;;0.60;;
23614;SDS011;11985;49.404;7.734;2024-03-02T11:20:20;2.05;;;0.70;;
23614;SDS011;11985;49.404;7.734;2024-03-02T11:25:22;1.00;;;0.70;;
23614;SDS011;11985;49.404;7.734;2024-03-02T11:35:53;3.08;;;0.75;;
23614;SDS011;11985;49.404;7.734;2024-03-02T11:40:57;1.33;;;0.73;;
23614;SDS011;11985;49.404;7.734;2024-03-02T11:46:03;3.40;;;0.80;;
23614;SDS011;11985;49.404;7.734;2024-03-02T11:51:07;0.82;;;0.60;;
23614;SDS011;11985;49.404;7.734;2024-03-02T11:56:09;1.35;;;0.82;;
23614;SDS011;11985;49.404;7.734;2024-03-02T12:01:13;0.90;;;0.70;;
23614;SDS011;11985;49.404;7.734;2024-03-02T12:06:15;0.63;;;0.60;;
23614;SDS011;11985;49.404;7.734;2024-03-02T12:11:19;0.55;;;0.55;;
23614;SDS011;11985;49.404;7.734;2024-03-02T12:16:26;1.02;;;0.70;;
23614;SDS011;11985;49.404;7.734;2024-03-02T12:21:27;1.65;;;0.90;;
23614;SDS011;11985;49.404;7.734;2024-03-02T12:26:29;2.90;;;1.05;;
23614;SDS011;11985;49.404;7.734;2024-03-02T12:31:32;2.05;;;0.73;;
23614;SDS011;11985;49.404;7.734;2024-03-02T12:36:36;0.97;;;0.77;;
23614;SDS011;11985;49.404;7.734;2024-03-02T12:41:39;0.73;;;0.70;;
23614;SDS011;11985;49.404;7.734;2024-03-02T12:46:42;1.90;;;0.75;;
23614;SDS011;11985;49.404;7.734;2024-03-02T12:51:44;1.38;;;0.77;;
23614;SDS011;11985;49.404;7.734;2024-03-02T12:56:47;1.27;;;0.90;;
23614;SDS011;11985;49.404;7.734;2024-03-02T13:01:54;2.78;;;0.90;;
23614;SDS011;11985;49.404;7.734;2024-03-02T13:06:57;1.13;;;0.60;;
23614;SDS011;11985;49.404;7.734;2024-03-02T13:11:58;0.98;;;0.80;;
23614;SDS011;11985;49.404;7.734;2024-03-02T13:17:02;1.67;;;0.80;;
23614;SDS011;11985;49.404;7.734;2024-03-02T13:22:05;1.23;;;0.70;;
23614;SDS011;11985;49.404;7.734;2024-03-02T13:27:07;0.90;;;0.60;;
23614;SDS011;11985;49.404;7.734;2024-03-02T13:32:10;0.82;;;0.68;;
23614;SDS011;11985;49.404;7.734;2024-03-02T13:37:11;1.55;;;0.75;;
23614;SDS011;11985;49.404;7.734;2024-03-02T13:42:13;1.90;;;0.85;;
23614;SDS011;11985;49.404;7.734;2024-03-02T13:47:16;0.73;;;0.60;;
23614;SDS011;11985;49.404;7.734;2024-03-02T13:52:18;0.98;;;0.70;;
23614;SDS011;11985;49.404;7.734;2024-03-02T13:57:20;2.08;;;0.70;;
23614;SDS011;11985;49.404;7.734;2024-03-02T14:02:23;0.93;;;0.75;;
23614;SDS011;11985;49.404;7.734;2024-03-02T14:07:26;0.93;;;0.60;;
23614;SDS011;11985;49.404;7.734;2024-03-02T14:12:28;0.50;;;0.50;;
23614;SDS011;11985;49.404;7.734;2024-03-02T14:17:30;0.40;;;0.40;;
23614;SDS011;11985;49.404;7.734;2024-03-02T14:22:32;0.70;;;0.50;;
23614;SDS011;11985;49.404;7.734;2024-03-02T14:27:35;1.55;;;0.63;;
23614;SDS011;11985;49.404;7.734;2024-03-02T14:32:38;0.75;;;0.55;;
23614;SDS011;11985;49.404;7.734;2024-03-02T14:37:40;1.70;;;0.50;;
23614;SDS011;11985;49.404;7.734;2024-03-02T14:42:41;1.55;;;0.77;;
23614;SDS011;11985;49.404;7.734;2024-03-02T14:47:48;0.85;;;0.50;;
23614;SDS011;11985;49.404;7.734;2024-03-02T14:52:50;1.08;;;0.80;;
23614;SDS011;11985;49.404;7.734;2024-03-02T14:57:52;1.45;;;0.70;;
23614;SDS011;11985;49.404;7.734;2024-03-02T15:02:55;1.50;;;0.90;;
23614;SDS011;11985;49.404;7.734;2024-03-02T15:07:57;1.17;;;0.93;;
23614;SDS011;11985;49.404;7.734;2024-03-02T15:12:59;1.25;;;0.77;;
23614;SDS011;11985;49.404;7.734;2024-03-02T15:18:02;1.35;;;0.88;;
23614;SDS011;11985;49.404;7.734;2024-03-02T15:23:05;1.20;;;1.00;;
23614;SDS011;11985;49.404;7.734;2024-03-02T15:28:06;1.02;;;0.80;;
23614;SDS011;11985;49.404;7.734;2024-03-02T15:33:09;1.63;;;0.90;;
23614;SDS011;11985;49.404;7.734;2024-03-02T15:38:11;2.55;;;1.02;;
23614;SDS011;11985;49.404;7.734;2024-03-02T15:43:15;3.67;;;0.90;;
23614;SDS011;11985;49.404;7.734;2024-03-02T15:48:18;1.52;;;1.02;;
23614;SDS011;11985;49.404;7.734;2024-03-02T15:53:20;2.08;;;0.80;;
23614;SDS011;11985;49.404;7.734;2024-03-02T15:58:21;3.38;;;0.98;;
23614;SDS011;11985;49.404;7.734;2024-03-02T16:03:24;3.78;;;0.82;;
23614;SDS011;11985;49.404;7.734;2024-03-02T16:08:26;2.28;;;0.90;;
23614;SDS011;11985;49.404;7.734;2024-03-02T16:13:28;3.40;;;0.77;;
23614;SDS011;11985;49.404;7.734;2024-03-02T16:18:31;1.30;;;0.80;;
23614;SDS011;11985;49.404;7.734;2024-03-02T16:23:34;2.07;;;1.00;;
23614;SDS011;11985;49.404;7.734;2024-03-02T16:28:35;4.25;;;0.88;;
23614;SDS011;11985;49.404;7.734;2024-03-02T16:33:38;1.27;;;0.90;;
23614;SDS011;11985;49.404;7.734;2024-03-02T16:38:40;3.45;;;1.15;;
23614;SDS011;11985;49.404;7.734;2024-03-02T16:43:43;2.90;;;1.20;;
23614;SDS011;11985;49.404;7.734;2024-03-02T16:48:47;2.83;;;1.20;;
23614;SDS011;11985;49.404;7.734;2024-03-02T16:53:48;2.05;;;1.30;;
23614;SDS011;11985;49.404;7.734;2024-03-02T16:58:50;3.00;;;1.50;;
23614;SDS011;11985;49.404;7.734;2024-03-02T17:03:53;2.63;;;1.48;;
23614;SDS011;11985;49.404;7.734;2024-03-02T17:08:54;3.28;;;1.70;;
23614;SDS011;11985;49.404;7.734;2024-03-02T17:13:58;2.95;;;1.92;;
23614;SDS011;11985;49.404;7.734;2024-03-02T17:19:01;1.92;;;1.48;;
23614;SDS011;11985;49.404;7.734;2024-03-02T17:24:03;3.65;;;1.98;;
23614;SDS011;11985;49.404;7.734;2024-03-02T17:29:05;3.80;;;1.95;;
23614;SDS011;11985;49.404;7.734;2024-03-02T17:34:08;4.00;;;1.60;;
23614;SDS011;11985;49.404;7.734;2024-03-02T17:39:10;4.57;;;1.85;;
23614;SDS011;11985;49.404;7.734;2024-03-02T17:44:12;2.50;;;1.85;;
23614;SDS011;11985;49.404;7.734;2024-03-02T17:49:15;6.30;;;1.92;;
23614;SDS011;11985;49.404;7.734;2024-03-02T17:54:16;2.17;;;1.45;;
23614;SDS011;11985;49.404;7.734;2024-03-02T17:59:18;1.77;;;1.23;;
23614;SDS011;11985;49.404;7.734;2024-03-02T18:04:21;2.13;;;1.38;;
23614;SDS011;11985;49.404;7.734;2024-03-02T18:09:23;2.13;;;1.40;;
23614;SDS011;11985;49.404;7.734;2024-03-02T18:14:24;3.00;;;1.60;;
23614;SDS011;11985;49.404;7.734;2024-03-02T18:19:28;2.50;;;1.35;;
23614;SDS011;11985;49.404;7.734;2024-03-02T18:24:31;2.70;;;1.55;;
23614;SDS011;11985;49.404;7.734;2024-03-02T18:29:33;2.47;;;1.70;;
23614;SDS011;11985;49.404;7.734;2024-03-02T18:34:36;2.88;;;1.25;;
23614;SDS011;11985;49.404;7.734;2024-03-02T18:39:37;2.80;;;1.35;;
23614;SDS011;11985;49.404;7.734;2024-03-02T18:44:39;4.72;;;1.48;;
23614;SDS011;11985;49.404;7.734;2024-03-02T18:49:43;3.47;;;1.70;;
23614;SDS011;11985;49.404;7.734;2024-03-02T18:54:45;2.97;;;1.17;;
23614;SDS011;11985;49.404;7.734;2024-03-02T18:59:47;4.03;;;1.42;;
23614;SDS011;11985;49.404;7.734;2024-03-02T19:04:51;2.75;;;1.30;;
23614;SDS011;11985;49.404;7.734;2024-03-02T19:09:52;2.92;;;1.30;;
23614;SDS011;11985;49.404;7.734;2024-03-02T19:14:54;2.88;;;1.33;;
23614;SDS011;11985;49.404;7.734;2024-03-02T19:19:57;1.70;;;1.20;;
23614;SDS011;11985;49.404;7.734;2024-03-02T19:24:59;3.72;;;2.00;;
23614;SDS011;11985;49.404;7.734;2024-03-02T19:30:01;5.15;;;1.92;;
23614;SDS011;11985;49.404;7.734;2024-03-02T19:35:07;3.17;;;1.80;;
23614;SDS011;11985;49.404;7.734;2024-03-02T19:40:12;5.50;;;1.70;;
23614;SDS011;11985;49.404;7.734;2024-03-02T19:45:13;2.45;;;1.40;;
23614;SDS011;11985;49.404;7.734;2024-03-02T19:50:16;2.05;;;1.17;;
23614;SDS011;11985;49.404;7.734;2024-03-02T19:55:18;1.55;;;1.13;;
23614;SDS011;11985;49.404;7.734;2024-03-02T20:00:21;2.33;;;1.20;;
23614;SDS011;11985;49.404;7.734;2024-03-02T20:05:24;3.58;;;1.13;;
23614;SDS011;11985;49.404;7.734;2024-03-02T20:10:25;2.97;;;1.50;;
23614;SDS011;11985;49.404;7.734;2024-03-02T20:15:28;2.47;;;1.45;;
23614;SDS011;11985;49.404;7.734;2024-03-02T20:20:31;2.55;;;1.52;;
23614;SDS011;11985;49.404;7.734;2024-03-02T20:25:32;3.03;;;1.38;;
23614;SDS011;11985;49.404;7.734;2024-03-02T20:30:34;2.83;;;1.40;;
23614;SDS011;11985;49.404;7.734;2024-03-02T20:35:37;3.40;;;1.65;;
23614;SDS011;11985;49.404;7.734;2024-03-02T20:40:39;2.55;;;1.45;;
23614;SDS011;11985;49.404;7.734;2024-03-02T20:45:42;2.65;;;1.80;;
23614;SDS011;11985;49.404;7.734;2024-03-02T20:50:45;2.22;;;1.60;;
23614;SDS011;11985;49.404;7.734;2024-03-02T20:55:46;1.90;;;1.40;;
23614;SDS011;11985;49.404;7.734;2024-03-02T21:00:48;2.28;;;1.60;;
23614;SDS011;11985;49.404;7.734;2024-03-02T21:05:51;2.40;;;1.65;;
23614;SDS011;11985;49.404;7.734;2024-03-02T21:10:52;4.78;;;1.65;;
23614;SDS011;11985;49.404;7.734;2024-03-02T21:15:55;4.30;;;2.15;;
23614;SDS011;11985;49.404;7.734;2024-03-02T21:20:58;3.83;;;1.98;;
23614;SDS011;11985;49.404;7.734;2024-03-02T21:25:59;3.40;;;2.30;;
23614;SDS011;11985;49.404;7.734;2024-03-02T21:31:03;5.85;;;2.72;;
23614;SDS011;11985;49.404;7.734;2024-03-02T21:36:06;4.32;;;2.88;;
23614;SDS011;11985;49.404;7.734;2024-03-02T21:41:08;5.32;;;2.83;;
23614;SDS011;11985;49.404;7.734;2024-03-02T21:46:10;7.05;;;3.30;;
23614;SDS011;11985;49.404;7.734;2024-03-02T21:51:15;7.90;;;3.33;;
23614;SDS011;11985;49.404;7.734;2024-03-02T21:56:17;5.95;;;3.50;;
23614;SDS011;11985;49.404;7.734;2024-03-02T22:01:18;12.20;;;3.80;;
23614;SDS011;11985;49.404;7.734;2024-03-02T22:06:21;9.43;;;5.53;;
23614;SDS011;11985;49.404;7.734;2024-03-02T22:11:23;9.38;;;4.75;;
23614;SDS011;11985;49.404;7.734;2024-03-02T22:16:24;9.50;;;5.80;;
23614;SDS011;11985;49.404;7.734;2024-03-02T22:21:28;10.45;;;5.72;;
23614;SDS011;11985;49.404;7.734;2024-03-02T22:26:29;8.50;;;5.50;;
23614;SDS011;11985;49.404;7.734;2024-03-02T22:31:31;10.88;;;5.70;;
23614;SDS011;11985;49.404;7.734;2024-03-02T22:36:34;13.85;;;6.88;;
23614;SDS011;11985;49.404;7.734;2024-03-02T22:41:35;18.88;;;8.35;;
23614;SDS011;11985;49.404;7.734;2024-03-02T22:46:37;18.30;;;7.85;;
23614;SDS011;11985;49.404;7.734;2024-03-02T22:51:40;15.88;;;7.88;;
23614;SDS011;11985;49.404;7.734;2024-03-02T22:56:42;14.98;;;6.80;;
23614;SDS011;11985;49.404;7.734;2024-03-02T23:01:45;13.23;;;6.55;;
23614;SDS011;11985;49.404;7.734;2024-03-02T23:06:48;14.88;;;7.35;;
23614;SDS011;11985;49.404;7.734;2024-03-02T23:11:50;13.15;;;6.90;;
23614;SDS011;11985;49.404;7.734;2024-03-02T23:16:51;16.52;;;9.23;;
23614;SDS011;11985;49.404;7.734;2024-03-02T23:21:54;16.25;;;8.73;;
23614;SDS011;11985;49.404;7.734;2024-03-02T23:26:56;18.83;;;8.77;;
23614;SDS011;11985;49.404;7.734;2024-03-02T23:31:58;24.90;;;11.02;;
23614;SDS011;11985;49.404;7.734;2024-03-02T23:37:01;21.63;;;11.85;;
23614;SDS011;11985;49.404;7.734;2024-03-02T23:42:02;17.63;;;9.52;;
23614;SDS011;11985;49.404;7.734;2024-03-02T23:47:05;19.60;;;10.80;;
23614;SDS011;11985;49.404;7.734;2024-03-02T23:52:09;22.90;;;12.77;;
23614;SDS011;11985;49.404;7.734;2024-03-02T23:57:10;25.90;;;12.10;;
